createdAt,value
2022-12-16T00:01:19.930Z,33.10
2022-12-16T00:06:18.528Z,31.70
2022-12-16T00:11:17.987Z,32.37
2022-12-16T00:16:18.565Z,31.50
2022-12-16T00:21:18.477Z,30.60
2022-12-16T00:26:17.977Z,30.83
2022-12-16T00:31:16.083Z,28.30
2022-12-16T00:36:14.134Z,29.10
2022-12-16T00:41:12.171Z,32.30
2022-12-16T00:46:11.663Z,30.67
2022-12-16T00:51:09.756Z,30.37
2022-12-16T00:56:09.735Z,29.60
2022-12-16T01:01:09.200Z,29.53
2022-12-16T01:06:11.850Z,31.27
2022-12-16T01:11:11.497Z,31.00
2022-12-16T01:16:09.624Z,30.23
2022-12-16T01:21:12.308Z,30.90
2022-12-16T01:26:16.018Z,29.70
2022-12-16T01:31:15.864Z,31.10
2022-12-16T01:36:15.326Z,29.33
2022-12-16T01:41:14.233Z,29.40
2022-12-16T01:46:19.531Z,28.60
2022-12-16T01:51:24.178Z,29.33
2022-12-16T01:56:25.165Z,28.50
2022-12-16T02:01:23.817Z,30.87
2022-12-16T02:06:23.488Z,29.10
2022-12-16T02:11:37.608Z,29.27
2022-12-16T02:16:45.582Z,28.20
2022-12-16T02:21:49.755Z,27.47
2022-12-16T02:27:19.675Z,27.43
2022-12-16T02:32:27.492Z,26.43
2022-12-16T02:37:38.973Z,27.43
2022-12-16T02:42:43.012Z,26.27
2022-12-16T02:47:42.390Z,26.57
2022-12-16T02:52:40.441Z,27.40
2022-12-16T02:58:05.925Z,25.57
2022-12-16T03:03:09.936Z,25.60
2022-12-16T03:08:13.600Z,27.97
2022-12-16T03:13:12.969Z,27.10
2022-12-16T03:18:14.411Z,25.90
2022-12-16T03:23:16.500Z,28.27
2022-12-16T03:28:26.483Z,31.00
2022-12-16T03:33:31.010Z,26.37
2022-12-16T03:38:30.806Z,27.73
2022-12-16T03:43:29.308Z,27.90
2022-12-16T03:48:28.893Z,27.50
2022-12-16T03:53:27.266Z,28.10
2022-12-16T03:58:25.255Z,24.57
2022-12-16T04:03:23.658Z,29.03
2022-12-16T04:08:23.070Z,27.30
2022-12-16T04:13:38.473Z,28.90
2022-12-16T04:18:54.738Z,28.60
2022-12-16T04:24:15.054Z,26.10
2022-12-16T04:29:13.283Z,26.83
2022-12-16T04:34:30.038Z,28.87
2022-12-16T04:39:47.080Z,28.80
2022-12-16T04:45:02.669Z,27.33
2022-12-16T04:50:18.173Z,26.60
2022-12-16T04:55:35.158Z,24.57
2022-12-16T05:00:59.056Z,26.30
2022-12-16T05:06:14.658Z,26.07
2022-12-16T05:11:32.031Z,28.03
2022-12-16T05:16:47.629Z,26.37
2022-12-16T05:22:03.310Z,28.00
2022-12-16T05:27:20.018Z,28.80
2022-12-16T05:32:35.985Z,29.57
2022-12-16T05:37:52.362Z,27.20
2022-12-16T05:43:14.872Z,29.00
2022-12-16T05:48:47.754Z,27.20
2022-12-16T05:54:03.632Z,26.87
2022-12-16T05:59:20.898Z,26.97
2022-12-16T06:04:36.455Z,26.47
2022-12-16T06:09:56.550Z,26.77
2022-12-16T06:15:13.646Z,27.73
2022-12-16T06:20:29.699Z,27.57
2022-12-16T06:25:45.247Z,26.40
2022-12-16T06:31:02.187Z,26.40
2022-12-16T06:36:17.748Z,27.90
2022-12-16T06:41:33.382Z,26.60
2022-12-16T06:46:50.152Z,28.47
2022-12-16T06:52:14.100Z,28.33
2022-12-16T06:57:29.816Z,30.00
2022-12-16T07:02:46.510Z,28.50
2022-12-16T07:08:06.337Z,29.03
2022-12-16T07:13:22.129Z,28.93
2022-12-16T07:18:39.122Z,27.70
2022-12-16T07:23:54.615Z,27.00
2022-12-16T07:29:11.546Z,28.30
2022-12-16T07:34:28.266Z,26.83
2022-12-16T07:39:43.698Z,35.30
2022-12-16T07:44:59.259Z,34.50
2022-12-16T07:50:15.966Z,27.87
2022-12-16T07:55:31.655Z,28.77
2022-12-16T08:00:49.569Z,28.47
2022-12-16T08:06:07.690Z,29.67
2022-12-16T08:11:23.578Z,28.27
2022-12-16T08:16:39.168Z,29.20
2022-12-16T08:21:56.073Z,30.07
2022-12-16T08:27:11.710Z,31.97
2022-12-16T08:32:27.397Z,30.80
2022-12-16T08:37:44.327Z,29.00
2022-12-16T08:43:00.053Z,30.73
2022-12-16T08:48:15.250Z,30.20
2022-12-16T08:53:32.523Z,28.60
2022-12-16T08:58:48.407Z,29.07
2022-12-16T09:04:04.165Z,26.97
2022-12-16T09:09:20.832Z,28.20
2022-12-16T09:14:36.270Z,29.10
2022-12-16T09:19:51.822Z,27.10
2022-12-16T09:25:13.926Z,27.80
2022-12-16T09:30:29.826Z,28.60
2022-12-16T09:35:45.483Z,27.87
2022-12-16T09:41:02.254Z,30.33
2022-12-16T09:46:23.667Z,29.93
2022-12-16T09:51:40.101Z,30.43
2022-12-16T09:56:57.336Z,30.10
2022-12-16T10:02:13.814Z,29.80
2022-12-16T10:07:35.313Z,29.23
2022-12-16T10:13:01.513Z,30.40
2022-12-16T10:18:21.548Z,31.03
2022-12-16T10:23:58.041Z,27.70
2022-12-16T10:29:22.545Z,28.23
2022-12-16T10:34:43.177Z,29.50
2022-12-16T10:40:02.058Z,27.10
2022-12-16T10:45:33.113Z,28.03
2022-12-16T10:50:48.611Z,27.50
2022-12-16T10:56:17.399Z,27.00
2022-12-16T11:01:42.586Z,26.07
2022-12-16T11:06:59.211Z,30.00
2022-12-16T11:12:44.658Z,29.70
2022-12-16T11:18:21.172Z,30.17
2022-12-16T11:23:39.219Z,31.20
2022-12-16T11:28:54.787Z,32.10
2022-12-16T11:34:13.654Z,33.83
2022-12-16T11:39:34.715Z,32.43
2022-12-16T11:44:53.865Z,30.93
2022-12-16T11:50:11.598Z,29.37
2022-12-16T12:01:21.265Z,28.97
2022-12-16T12:06:46.264Z,28.23
2022-12-16T12:12:08.466Z,27.73
2022-12-16T12:17:35.919Z,26.40
2022-12-16T12:22:55.912Z,26.10
2022-12-16T12:28:20.038Z,24.63
2022-12-16T12:33:50.493Z,23.60
2022-12-16T12:39:19.236Z,24.17
2022-12-16T12:44:48.724Z,23.30
2022-12-16T12:50:14.069Z,24.47
2022-12-16T12:55:40.555Z,25.53
2022-12-16T13:01:04.893Z,25.30
2022-12-16T13:06:21.452Z,27.60
2022-12-16T13:11:38.277Z,25.43
2022-12-16T13:17:25.802Z,21.53
2022-12-16T13:22:50.030Z,22.20
2022-12-16T13:28:13.431Z,24.67
2022-12-16T13:33:52.332Z,26.00
2022-12-16T13:39:10.354Z,24.87
2022-12-16T13:44:27.783Z,24.47
2022-12-16T13:50:03.299Z,23.20
2022-12-16T13:55:37.890Z,26.10
2022-12-16T14:00:59.941Z,25.10
2022-12-16T14:06:15.811Z,24.40
2022-12-16T14:11:38.429Z,24.30
2022-12-16T14:17:05.918Z,25.40
2022-12-16T14:22:42.921Z,26.33
2022-12-16T14:27:58.850Z,27.90
2022-12-16T14:33:15.606Z,25.77
2022-12-16T14:38:41.900Z,26.80
2022-12-16T14:44:01.905Z,26.03
2022-12-16T14:49:18.810Z,26.37
2022-12-16T14:54:43.992Z,25.40
2022-12-16T14:59:55.909Z,26.50
2022-12-16T15:05:13.145Z,27.40
2022-12-16T15:10:33.078Z,27.60
2022-12-16T15:15:53.996Z,26.60
2022-12-16T15:21:12.285Z,28.10
2022-12-16T15:26:35.214Z,28.87
2022-12-16T15:31:52.298Z,27.60
2022-12-16T15:37:08.991Z,27.37
2022-12-16T15:42:36.294Z,28.97
2022-12-16T15:47:53.932Z,26.40
2022-12-16T15:53:11.187Z,24.73
2022-12-16T15:58:32.372Z,24.40
2022-12-16T16:03:49.454Z,25.30
2022-12-16T16:09:10.167Z,25.10
2022-12-16T16:14:25.901Z,25.73
2022-12-16T16:19:43.601Z,26.27
2022-12-16T16:25:14.913Z,25.17
2022-12-16T16:30:31.090Z,24.63
2022-12-16T16:35:46.842Z,23.90
2022-12-16T16:41:05.659Z,26.47
2022-12-16T16:46:26.099Z,28.23
2022-12-16T16:51:41.702Z,27.87
2022-12-16T16:56:58.457Z,25.23
2022-12-16T17:02:14.080Z,27.20
2022-12-16T17:07:29.810Z,25.63
2022-12-16T17:12:48.216Z,27.93
2022-12-16T17:18:03.874Z,25.50
2022-12-16T17:23:19.379Z,25.30
2022-12-16T17:28:36.053Z,27.47
2022-12-16T17:33:51.609Z,27.63
2022-12-16T17:39:07.005Z,30.60
2022-12-16T17:44:24.092Z,32.33
2022-12-16T17:49:39.498Z,31.70
2022-12-16T17:54:55.140Z,35.50
2022-12-16T18:00:11.082Z,32.97
2022-12-16T18:05:36.641Z,35.90
2022-12-16T18:10:54.835Z,34.33
2022-12-16T18:16:12.208Z,35.67
2022-12-16T18:21:29.111Z,39.73
2022-12-16T18:26:44.813Z,39.53
2022-12-16T18:32:01.691Z,39.83
2022-12-16T18:37:17.139Z,37.20
2022-12-16T18:42:44.213Z,38.67
2022-12-16T18:48:00.968Z,43.60
2022-12-16T18:53:16.710Z,42.57
2022-12-16T18:58:51.196Z,41.70
2022-12-16T19:04:08.476Z,42.30
2022-12-16T19:09:24.092Z,41.07
2022-12-16T19:14:39.776Z,43.87
2022-12-16T19:19:56.673Z,38.20
2022-12-16T19:25:12.295Z,38.50
2022-12-16T19:30:28.734Z,39.80
2022-12-16T19:35:45.640Z,38.90
2022-12-16T19:41:24.264Z,39.60
2022-12-16T19:46:39.924Z,39.20
2022-12-16T19:51:56.707Z,43.00
2022-12-16T19:57:12.385Z,42.20
2022-12-16T20:02:30.100Z,43.53
2022-12-16T20:07:47.147Z,45.87
2022-12-16T20:13:02.863Z,49.20
2022-12-16T20:18:18.365Z,47.80
2022-12-16T20:23:35.025Z,48.20
2022-12-16T20:28:51.612Z,51.10
2022-12-16T20:34:11.958Z,44.73
2022-12-16T20:39:29.674Z,45.63
2022-12-16T20:44:45.315Z,41.37
2022-12-16T20:50:01.054Z,42.30
2022-12-16T20:55:17.722Z,40.07
2022-12-16T21:00:33.970Z,39.07
2022-12-16T21:05:49.500Z,39.30
2022-12-16T21:11:08.076Z,38.50
2022-12-16T21:16:25.004Z,38.03
2022-12-16T21:21:39.759Z,38.60
2022-12-16T21:26:56.523Z,37.33
2022-12-16T21:32:12.157Z,39.10
2022-12-16T21:37:27.830Z,38.67
2022-12-16T21:42:44.548Z,38.50
2022-12-16T21:48:00.068Z,39.00
2022-12-16T21:53:15.732Z,42.67
2022-12-16T21:58:32.721Z,41.23
2022-12-16T22:03:52.709Z,45.27
2022-12-16T22:09:05.654Z,41.00
2022-12-16T22:14:23.030Z,44.43
2022-12-16T22:19:38.506Z,43.80
2022-12-16T22:24:54.008Z,46.97
2022-12-16T22:30:13.947Z,44.10
2022-12-16T22:35:29.531Z,42.50
2022-12-16T22:40:56.708Z,47.07
2022-12-16T22:46:18.834Z,43.47
2022-12-16T22:51:35.523Z,41.40
2022-12-16T22:56:51.173Z,40.03
2022-12-16T23:02:08.515Z,40.83
2022-12-16T23:07:24.021Z,42.40
2022-12-16T23:12:39.963Z,41.07
2022-12-16T23:17:57.074Z,42.07
2022-12-16T23:23:13.074Z,37.87
2022-12-16T23:28:28.640Z,40.07
2022-12-16T23:33:45.514Z,40.87
2022-12-16T23:39:01.162Z,37.60
2022-12-16T23:44:16.693Z,38.00
2022-12-16T23:49:33.826Z,36.73
2022-12-16T23:54:49.525Z,40.00
